createdAt,value
2023-03-26T00:02:08.419Z,65.75
2023-03-26T00:04:37.513Z,60.13
2023-03-26T00:07:06.267Z,62.25
2023-03-26T00:09:35.193Z,62.05
2023-03-26T00:12:03.873Z,56.97
2023-03-26T00:14:33.544Z,54.83
2023-03-26T00:17:03.217Z,56.85
2023-03-26T00:19:33.231Z,57.78
2023-03-26T00:22:04.512Z,58.88
2023-03-26T00:24:33.618Z,52.50
2023-03-26T00:27:02.783Z,47.72
2023-03-26T00:29:34.193Z,50.08
2023-03-26T00:32:03.476Z,45.75
2023-03-26T00:34:35.504Z,41.75
2023-03-26T00:37:04.523Z,40.03
2023-03-26T00:39:34.658Z,36.97
2023-03-26T00:42:07.860Z,36.10
2023-03-26T00:44:37.007Z,33.38
2023-03-26T00:47:05.964Z,33.33
2023-03-26T00:49:35.120Z,32.90
2023-03-26T00:52:04.446Z,34.58
2023-03-26T00:54:33.410Z,38.08
2023-03-26T00:57:02.146Z,45.42
2023-03-26T00:59:31.252Z,43.13
2023-03-26T01:02:03.404Z,36.15
2023-03-26T01:04:38.847Z,35.63
2023-03-26T01:07:23.030Z,31.92
2023-03-26T01:09:53.362Z,31.33
2023-03-26T01:12:29.205Z,31.60
2023-03-26T01:15:02.880Z,30.35
2023-03-26T01:17:40.449Z,32.88
2023-03-26T01:20:21.955Z,45.85
2023-03-26T01:23:00.510Z,49.47
2023-03-26T01:25:41.723Z,48.28
2023-03-26T01:28:15.168Z,41.08
2023-03-26T01:31:00.452Z,37.63
2023-03-26T01:33:51.070Z,37.90
2023-03-26T01:36:42.551Z,34.95
2023-03-26T01:39:59.480Z,34.97
2023-03-26T01:42:46.662Z,38.78
2023-03-26T01:45:27.241Z,45.50
2023-03-26T01:48:01.682Z,44.70
2023-03-26T01:50:33.289Z,39.72
2023-03-26T01:53:06.657Z,39.65
2023-03-26T01:56:08.728Z,39.92
2023-03-26T01:58:48.386Z,40.72
2023-03-26T02:01:32.410Z,38.20
2023-03-26T02:04:15.433Z,39.25
2023-03-26T02:07:15.276Z,38.80
2023-03-26T02:09:53.803Z,38.05
2023-03-26T02:12:26.813Z,34.53
2023-03-26T02:14:56.800Z,35.17
2023-03-26T02:17:25.510Z,36.40
2023-03-26T02:19:55.156Z,35.03
2023-03-26T02:22:30.760Z,34.42
2023-03-26T02:25:00.930Z,33.95
2023-03-26T02:27:30.185Z,31.38
2023-03-26T02:29:59.039Z,28.75
2023-03-26T02:32:29.162Z,26.45
2023-03-26T02:34:58.278Z,26.83
2023-03-26T02:37:27.071Z,27.90
2023-03-26T02:40:07.328Z,31.75
2023-03-26T02:42:36.502Z,33.60
2023-03-26T02:45:06.701Z,38.17
2023-03-26T02:47:54.420Z,38.28
2023-03-26T02:50:41.189Z,32.92
2023-03-26T02:53:40.307Z,27.00
2023-03-26T02:56:29.850Z,29.73
2023-03-26T02:59:11.811Z,27.40
2023-03-26T03:01:45.126Z,26.67
2023-03-26T03:04:16.697Z,25.38
2023-03-26T03:06:46.661Z,26.48
2023-03-26T03:09:15.447Z,24.92
2023-03-26T03:11:47.555Z,26.98
2023-03-26T03:14:16.779Z,26.67
2023-03-26T03:16:45.609Z,24.48
2023-03-26T03:19:15.051Z,25.27
2023-03-26T03:21:44.151Z,22.83
2023-03-26T03:24:14.654Z,22.48
2023-03-26T03:26:48.453Z,23.42
2023-03-26T03:29:33.665Z,27.02
2023-03-26T03:32:23.607Z,24.23
2023-03-26T03:34:55.615Z,29.55
2023-03-26T03:37:25.549Z,28.23
2023-03-26T03:39:56.713Z,26.50
2023-03-26T03:42:31.518Z,28.30
2023-03-26T03:45:04.999Z,24.90
2023-03-26T03:47:52.136Z,23.98
2023-03-26T03:50:28.720Z,21.52
2023-03-26T03:53:16.890Z,20.55
2023-03-26T03:55:53.924Z,19.58
2023-03-26T03:58:29.231Z,19.67
2023-03-26T04:01:05.143Z,21.58
2023-03-26T04:03:56.208Z,20.70
2023-03-26T04:06:32.144Z,21.60
2023-03-26T04:09:01.327Z,22.50
2023-03-26T04:11:30.408Z,21.85
2023-03-26T04:14:21.936Z,20.25
2023-03-26T04:17:03.099Z,20.40
2023-03-26T04:19:34.017Z,19.27
2023-03-26T04:22:04.178Z,20.83
2023-03-26T04:24:41.202Z,20.95
2023-03-26T04:27:32.589Z,15.93
2023-03-26T04:30:24.459Z,14.88
2023-03-26T04:33:07.336Z,15.05
2023-03-26T04:35:42.605Z,17.15
2023-03-26T04:38:17.691Z,22.35
2023-03-26T04:40:50.535Z,19.38
2023-03-26T04:43:43.135Z,18.00
2023-03-26T04:46:24.366Z,20.27
2023-03-26T04:49:04.381Z,18.52
2023-03-26T04:51:42.876Z,20.27
2023-03-26T04:54:26.477Z,20.15
2023-03-26T04:57:22.731Z,23.65
2023-03-26T05:00:01.614Z,20.17
2023-03-26T05:02:35.142Z,20.95
2023-03-26T05:05:04.239Z,23.20
2023-03-26T05:07:34.445Z,21.15
2023-03-26T05:10:06.620Z,21.52
2023-03-26T05:12:38.872Z,27.67
2023-03-26T05:15:16.890Z,28.23
2023-03-26T05:18:07.163Z,24.88
2023-03-26T05:20:44.818Z,26.52
2023-03-26T05:23:14.458Z,30.58
2023-03-26T05:28:38.110Z,28.35
2023-03-26T05:31:28.071Z,27.27
2023-03-26T05:34:01.431Z,28.25
2023-03-26T05:36:31.257Z,25.75
2023-03-26T05:39:15.067Z,23.77
2023-03-26T05:42:09.762Z,22.38
2023-03-26T05:45:01.007Z,26.05
2023-03-26T05:47:33.494Z,25.17
2023-03-26T05:50:02.704Z,28.45
2023-03-26T05:55:22.919Z,24.70
2023-03-26T05:58:09.861Z,24.95
2023-03-26T06:01:17.912Z,24.08
2023-03-26T06:04:19.065Z,23.35
2023-03-26T06:07:00.361Z,23.73
2023-03-26T06:09:30.415Z,22.95
2023-03-26T06:11:59.155Z,21.75
2023-03-26T06:14:30.276Z,14.27
2023-03-26T06:17:15.175Z,15.23
2023-03-26T06:20:13.820Z,13.07
2023-03-26T06:22:45.874Z,12.68
2023-03-26T06:25:35.445Z,10.10
2023-03-26T06:28:16.949Z,12.70
2023-03-26T06:30:55.938Z,10.38
2023-03-26T06:33:54.181Z,10.30
2023-03-26T06:36:23.056Z,8.93
2023-03-26T06:38:52.715Z,8.52
2023-03-26T06:41:22.216Z,8.23
2023-03-26T06:44:00.863Z,11.05
2023-03-26T06:46:48.243Z,7.72
2023-03-26T06:49:46.874Z,6.75
2023-03-26T06:52:32.532Z,7.50
2023-03-26T06:55:21.691Z,8.88
2023-03-26T06:58:08.055Z,8.07
2023-03-26T07:00:56.063Z,7.25
2023-03-26T07:03:44.131Z,6.95
2023-03-26T07:06:31.523Z,7.28
2023-03-26T07:09:27.290Z,6.22
2023-03-26T07:12:15.034Z,6.75
2023-03-26T07:15:04.714Z,7.10
2023-03-26T07:18:00.542Z,7.63
2023-03-26T07:20:34.310Z,7.00
2023-03-26T07:23:03.630Z,6.82
2023-03-26T07:25:37.836Z,5.63
2023-03-26T07:28:13.194Z,8.75
2023-03-26T07:31:15.874Z,9.32
2023-03-26T07:34:44.597Z,5.82
2023-03-26T07:38:11.760Z,5.57
2023-03-26T07:41:11.383Z,7.05
2023-03-26T07:44:25.841Z,4.70
2023-03-26T07:47:36.098Z,5.57
2023-03-26T07:50:37.428Z,6.30
2023-03-26T07:53:12.974Z,5.90
2023-03-26T07:56:21.390Z,5.95
2023-03-26T07:59:37.968Z,6.25
2023-03-26T08:02:44.570Z,5.85
2023-03-26T08:05:57.266Z,5.47
2023-03-26T08:08:39.671Z,6.55
2023-03-26T08:11:47.972Z,6.60
2023-03-26T08:14:34.884Z,7.00
2023-03-26T08:17:31.451Z,8.55
2023-03-26T08:20:11.911Z,6.28
2023-03-26T08:22:44.143Z,6.38
2023-03-26T08:25:50.150Z,6.07
2023-03-26T08:28:28.737Z,6.38
2023-03-26T08:30:58.732Z,7.90
2023-03-26T08:33:28.922Z,6.35
2023-03-26T08:35:58.337Z,6.47
2023-03-26T08:38:27.118Z,6.78
2023-03-26T08:41:15.633Z,6.93
2023-03-26T08:44:27.292Z,6.88
2023-03-26T08:47:08.074Z,8.38
2023-03-26T08:49:36.991Z,6.80
2023-03-26T08:52:25.421Z,6.75
2023-03-26T08:55:34.182Z,7.00
2023-03-26T08:58:24.433Z,6.63
2023-03-26T09:00:56.420Z,6.95
2023-03-26T09:03:31.009Z,7.68
2023-03-26T09:06:09.049Z,9.20
2023-03-26T09:08:54.331Z,9.23
2023-03-26T09:11:52.246Z,7.50
2023-03-26T09:14:46.612Z,8.80
2023-03-26T09:17:34.255Z,8.35
2023-03-26T09:20:22.797Z,7.93
2023-03-26T09:23:03.711Z,7.95
2023-03-26T09:25:43.733Z,7.25
2023-03-26T09:28:41.825Z,7.00
2023-03-26T09:31:49.467Z,7.00
2023-03-26T09:34:21.165Z,11.38
2023-03-26T09:37:06.729Z,13.23
2023-03-26T09:39:47.695Z,15.40
2023-03-26T09:42:46.083Z,15.65
2023-03-26T09:45:52.162Z,9.75
2023-03-26T09:48:45.547Z,12.05
2023-03-26T09:51:30.855Z,8.88
2023-03-26T09:54:24.438Z,10.57
2023-03-26T09:57:19.481Z,9.77
2023-03-26T10:00:11.013Z,10.52
2023-03-26T10:03:02.736Z,12.75
2023-03-26T10:05:42.298Z,11.63
2023-03-26T10:08:26.018Z,11.80
2023-03-26T10:11:06.658Z,11.68
2023-03-26T10:14:14.487Z,11.52
2023-03-26T10:16:49.296Z,11.57
2023-03-26T10:19:27.531Z,11.85
2023-03-26T10:22:25.229Z,13.05
2023-03-26T10:25:18.367Z,11.45
2023-03-26T10:28:05.210Z,11.63
2023-03-26T10:31:01.237Z,12.68
2023-03-26T10:33:53.173Z,13.75
2023-03-26T10:37:11.385Z,15.48
2023-03-26T10:40:11.092Z,14.13
2023-03-26T10:43:20.676Z,15.60
2023-03-26T10:46:12.092Z,16.13
2023-03-26T10:49:01.948Z,15.48
2023-03-26T10:51:49.532Z,17.65
2023-03-26T10:54:37.174Z,17.33
2023-03-26T10:57:23.776Z,17.90
2023-03-26T10:59:56.689Z,17.13
2023-03-26T11:02:29.934Z,17.17
2023-03-26T11:05:23.678Z,17.65
2023-03-26T11:08:09.531Z,16.38
2023-03-26T11:10:44.306Z,14.05
2023-03-26T11:13:40.070Z,16.42
2023-03-26T11:16:26.835Z,17.60
2023-03-26T11:19:34.532Z,17.42
2023-03-26T11:22:22.138Z,17.92
2023-03-26T11:25:05.139Z,15.68
2023-03-26T11:27:59.279Z,14.95
2023-03-26T11:30:34.498Z,14.55
2023-03-26T11:33:08.911Z,13.70
2023-03-26T11:35:42.820Z,13.82
2023-03-26T11:38:38.483Z,13.25
2023-03-26T11:41:17.283Z,13.07
2023-03-26T11:44:57.469Z,12.85
2023-03-26T11:47:41.726Z,12.48
2023-03-26T11:50:21.786Z,12.75
2023-03-26T11:52:53.234Z,11.05
2023-03-26T11:55:24.793Z,14.63
2023-03-26T11:57:58.388Z,15.43
2023-03-26T12:00:29.811Z,17.13
2023-03-26T12:03:00.256Z,16.00
2023-03-26T12:05:47.986Z,12.65
2023-03-26T12:08:22.932Z,13.85
2023-03-26T12:11:08.120Z,14.40
2023-03-26T12:13:42.686Z,17.15
2023-03-26T12:16:15.965Z,15.30
2023-03-26T12:18:46.704Z,13.68
2023-03-26T12:21:20.709Z,13.25
2023-03-26T12:24:06.510Z,12.40
2023-03-26T12:26:47.293Z,11.18
2023-03-26T12:29:19.679Z,12.63
2023-03-26T12:32:15.382Z,13.68
2023-03-26T12:34:44.709Z,13.07
2023-03-26T12:37:36.816Z,13.73
2023-03-26T12:40:28.325Z,15.55
2023-03-26T12:44:54.975Z,10.40
2023-03-26T12:47:46.130Z,11.77
2023-03-26T12:48:44.177Z,9.50
2023-03-26T12:51:48.598Z,9.15
2023-03-26T12:54:34.150Z,11.02
2023-03-26T12:57:17.761Z,11.02
2023-03-26T13:00:10.295Z,10.80
2023-03-26T13:03:11.557Z,12.55
2023-03-26T13:05:45.752Z,13.10
2023-03-26T13:08:29.704Z,12.75
2023-03-26T13:11:16.902Z,12.70
2023-03-26T13:14:05.095Z,16.10
2023-03-26T13:16:42.886Z,15.13
2023-03-26T13:19:31.943Z,16.75
2023-03-26T13:22:18.906Z,16.15
2023-03-26T13:24:51.282Z,16.83
2023-03-26T13:27:27.432Z,17.95
2023-03-26T13:29:57.530Z,17.02
2023-03-26T13:32:47.342Z,14.68
2023-03-26T13:35:25.260Z,13.75
2023-03-26T13:38:07.948Z,11.73
2023-03-26T13:41:01.681Z,13.75
2023-03-26T13:43:37.799Z,17.25
2023-03-26T13:46:22.632Z,16.10
2023-03-26T13:49:07.277Z,21.98
2023-03-26T13:51:43.294Z,22.02
2023-03-26T13:54:49.254Z,22.67
2023-03-26T13:57:44.363Z,20.15
2023-03-26T14:00:19.352Z,23.20
2023-03-26T14:02:57.961Z,22.08
2023-03-26T14:05:40.624Z,20.58
2023-03-26T14:10:55.000Z,29.00
2023-03-26T14:13:46.782Z,29.92
2023-03-26T14:16:36.773Z,31.40
2023-03-26T14:19:42.782Z,31.90
2023-03-26T14:22:34.800Z,29.65
2023-03-26T14:25:21.054Z,25.70
2023-03-26T14:28:11.759Z,29.38
2023-03-26T14:31:14.498Z,31.98
2023-03-26T14:34:08.383Z,18.83
2023-03-26T14:37:06.764Z,18.00
2023-03-26T14:39:49.693Z,17.35
2023-03-26T14:42:44.561Z,19.13
2023-03-26T14:45:34.935Z,27.15
2023-03-26T14:48:38.114Z,28.40
2023-03-26T14:51:37.245Z,43.67
2023-03-26T14:54:17.175Z,34.75
2023-03-26T14:57:10.722Z,29.80
2023-03-26T15:00:16.434Z,27.17
2023-03-26T15:03:18.363Z,27.05
2023-03-26T15:06:05.361Z,30.70
2023-03-26T15:09:08.022Z,27.67
2023-03-26T15:11:54.984Z,21.42
2023-03-26T15:15:00.139Z,19.55
2023-03-26T15:17:56.190Z,17.63
2023-03-26T15:20:46.789Z,19.88
2023-03-26T15:23:44.288Z,19.85
2023-03-26T15:26:31.883Z,18.52
2023-03-26T15:29:36.494Z,18.63
2023-03-26T15:32:31.321Z,17.52
2023-03-26T15:35:24.590Z,16.95
2023-03-26T15:38:23.146Z,17.20
2023-03-26T15:40:58.113Z,18.48
2023-03-26T15:44:01.593Z,20.60
2023-03-26T15:46:57.079Z,19.02
2023-03-26T15:49:28.969Z,20.55
2023-03-26T15:52:19.800Z,24.73
2023-03-26T15:55:13.452Z,22.63
2023-03-26T15:58:15.116Z,23.98
2023-03-26T16:01:19.789Z,24.00
2023-03-26T16:04:09.995Z,27.05
2023-03-26T16:07:20.324Z,25.15
2023-03-26T16:10:10.361Z,29.75
2023-03-26T16:12:47.965Z,67.00
2023-03-26T16:15:29.470Z,40.33
2023-03-26T16:18:20.214Z,222.23
2023-03-26T16:20:55.736Z,79.50
2023-03-26T16:23:34.472Z,78.65
2023-03-26T16:26:26.002Z,52.47
2023-03-26T16:28:55.003Z,49.83
2023-03-26T16:31:39.423Z,49.72
2023-03-26T16:34:11.480Z,38.45
2023-03-26T16:36:44.502Z,38.00
2023-03-26T16:39:22.515Z,40.13
2023-03-26T16:42:06.028Z,40.25
2023-03-26T16:44:38.732Z,39.72
2023-03-26T16:47:33.580Z,38.95
2023-03-26T16:50:53.742Z,39.08
2023-03-26T16:54:05.541Z,37.78
2023-03-26T16:57:13.172Z,42.63
2023-03-26T17:00:04.598Z,46.88
2023-03-26T17:03:05.450Z,46.22
2023-03-26T17:05:53.624Z,52.03
2023-03-26T17:08:54.226Z,52.58
2023-03-26T17:11:28.674Z,55.00
2023-03-26T17:14:32.144Z,55.90
2023-03-26T17:17:19.525Z,60.00
2023-03-26T17:20:15.495Z,62.70
2023-03-26T17:22:44.456Z,63.90
2023-03-26T17:26:06.924Z,62.63
2023-03-26T17:29:00.905Z,64.90
2023-03-26T17:32:05.587Z,63.47
2023-03-26T17:34:58.246Z,63.05
2023-03-26T17:37:36.753Z,64.35
2023-03-26T17:40:14.790Z,64.05
2023-03-26T17:43:03.403Z,63.05
2023-03-26T17:45:37.633Z,61.72
2023-03-26T17:48:22.939Z,80.93
2023-03-26T17:51:41.326Z,73.50
2023-03-26T17:54:35.781Z,65.45
2023-03-26T17:57:21.442Z,55.88
2023-03-26T17:59:57.072Z,50.85
2023-03-26T18:03:18.157Z,54.33
2023-03-26T18:05:48.689Z,65.72
2023-03-26T18:08:38.400Z,58.85
2023-03-26T18:11:10.070Z,55.15
2023-03-26T18:13:38.873Z,62.70
2023-03-26T18:16:33.600Z,59.45
2023-03-26T18:19:15.937Z,60.17
2023-03-26T18:21:46.253Z,64.13
2023-03-26T18:24:20.401Z,62.10
2023-03-26T18:27:04.301Z,60.45
2023-03-26T18:29:37.906Z,61.42
2023-03-26T18:32:12.844Z,65.75
2023-03-26T18:34:50.833Z,66.72
2023-03-26T18:37:39.801Z,72.10
2023-03-26T18:40:25.486Z,83.05
2023-03-26T18:42:59.980Z,93.95
2023-03-26T18:45:34.493Z,100.93
2023-03-26T18:48:20.200Z,101.47
2023-03-26T18:51:05.393Z,95.82
2023-03-26T18:53:49.554Z,91.18
2023-03-26T18:56:36.944Z,83.03
2023-03-26T18:59:08.667Z,75.38
2023-03-26T19:01:39.273Z,68.73
2023-03-26T19:04:10.063Z,65.10
2023-03-26T19:06:43.142Z,58.55
2023-03-26T19:09:30.304Z,56.92
2023-03-26T19:12:15.838Z,56.58
2023-03-26T19:15:14.978Z,51.85
2023-03-26T19:17:56.779Z,47.10
2023-03-26T19:20:30.803Z,46.80
2023-03-26T19:23:00.095Z,51.65
2023-03-26T19:25:49.385Z,57.03
2023-03-26T19:28:58.471Z,54.45
2023-03-26T19:31:33.894Z,54.35
2023-03-26T19:34:05.961Z,60.05
2023-03-26T19:36:35.606Z,57.75
2023-03-26T19:39:21.618Z,59.35
2023-03-26T19:41:57.341Z,62.40
2023-03-26T19:44:31.463Z,64.75
2023-03-26T19:47:07.256Z,63.33
2023-03-26T19:50:16.407Z,61.58
2023-03-26T19:52:46.182Z,58.28
2023-03-26T19:55:28.152Z,61.35
2023-03-26T19:57:57.533Z,59.10
2023-03-26T20:00:26.278Z,57.88
2023-03-26T20:02:55.666Z,57.22
2023-03-26T20:05:27.780Z,57.50
2023-03-26T20:08:01.858Z,58.78
2023-03-26T20:10:30.799Z,57.92
2023-03-26T20:12:59.572Z,57.83
2023-03-26T20:15:32.451Z,60.97
2023-03-26T20:18:01.763Z,62.08
2023-03-26T20:20:31.491Z,67.45
2023-03-26T20:23:00.532Z,69.95
2023-03-26T20:25:33.856Z,73.93
2023-03-26T20:28:03.392Z,76.80
2023-03-26T20:33:12.540Z,82.47
2023-03-26T20:35:42.521Z,83.95
2023-03-26T20:38:11.408Z,81.32
2023-03-26T20:40:41.152Z,89.22
2023-03-26T20:43:15.080Z,88.85
2023-03-26T20:45:44.563Z,96.40
2023-03-26T20:48:13.532Z,95.05
2023-03-26T20:50:50.701Z,96.45
2023-03-26T20:53:21.222Z,98.60
2023-03-26T20:55:51.811Z,103.53
2023-03-26T20:58:31.384Z,103.90
2023-03-26T21:01:02.750Z,103.07
2023-03-26T21:03:31.975Z,107.05
2023-03-26T21:06:05.770Z,108.78
2023-03-26T21:08:35.394Z,110.93
2023-03-26T21:11:26.377Z,114.30
2023-03-26T21:14:09.215Z,108.63
2023-03-26T21:16:38.779Z,114.40
2023-03-26T21:19:07.682Z,117.47
2023-03-26T21:22:21.654Z,115.68
2023-03-26T21:25:02.704Z,111.05
2023-03-26T21:28:01.919Z,107.53
2023-03-26T21:30:31.379Z,104.72
2023-03-26T21:33:00.784Z,100.97
2023-03-26T21:35:30.426Z,103.80
2023-03-26T21:37:59.810Z,107.90
2023-03-26T21:40:29.315Z,110.75
2023-03-26T21:42:59.680Z,93.82
2023-03-26T21:45:29.290Z,92.68
2023-03-26T21:47:58.586Z,88.15
2023-03-26T21:50:28.102Z,88.53
2023-03-26T21:52:57.530Z,98.32
2023-03-26T21:55:26.853Z,106.75
2023-03-26T21:58:17.713Z,108.95
2023-03-26T22:01:20.497Z,114.70
2023-03-26T22:04:12.223Z,110.60
2023-03-26T22:07:12.618Z,112.20
2023-03-26T22:09:42.174Z,119.40
2023-03-26T22:12:11.463Z,121.47
2023-03-26T22:14:40.466Z,126.78
2023-03-26T22:17:09.385Z,125.97
2023-03-26T22:19:38.322Z,127.13
2023-03-26T22:22:07.015Z,129.60
2023-03-26T22:24:35.960Z,119.43
2023-03-26T22:27:05.088Z,122.82
2023-03-26T22:29:34.436Z,117.65
2023-03-26T22:32:04.560Z,120.72
2023-03-26T22:34:35.879Z,123.70
2023-03-26T22:37:06.516Z,123.30
2023-03-26T22:39:35.437Z,121.80
2023-03-26T22:42:04.666Z,122.47
2023-03-26T22:44:33.847Z,121.75
2023-03-26T22:47:02.598Z,126.68
2023-03-26T22:49:32.292Z,137.80
2023-03-26T22:52:01.104Z,140.07
2023-03-26T22:54:29.792Z,143.00
2023-03-26T22:56:58.686Z,152.20
2023-03-26T22:59:27.400Z,152.77
2023-03-26T23:01:57.009Z,152.13
2023-03-26T23:04:31.533Z,163.90
2023-03-26T23:07:01.530Z,152.65
2023-03-26T23:09:30.604Z,258.50
2023-03-26T23:12:00.771Z,274.27
2023-03-26T23:14:29.889Z,162.55
2023-03-26T23:16:59.197Z,202.65
2023-03-26T23:19:27.897Z,186.80
2023-03-26T23:21:57.604Z,169.85
2023-03-26T23:24:31.134Z,157.65
2023-03-26T23:27:00.169Z,153.25
2023-03-26T23:29:30.980Z,149.07
2023-03-26T23:32:00.727Z,141.60
2023-03-26T23:34:29.396Z,136.23
2023-03-26T23:36:59.000Z,129.82
2023-03-26T23:39:29.638Z,135.23
2023-03-26T23:41:58.543Z,137.05
2023-03-26T23:44:30.298Z,136.95
2023-03-26T23:47:01.420Z,134.50
2023-03-26T23:49:30.622Z,130.90
2023-03-26T23:51:59.346Z,122.97
2023-03-26T23:54:28.442Z,126.63
2023-03-26T23:56:58.774Z,124.15
2023-03-26T23:59:27.777Z,119.28
